sensor_id;sensor_type;location;lat;lon;timestamp;temperature;humidity
326;DHT22;150;52.352;14.058;2022-10-16T00:02:10;17.00;55.70
326;DHT22;150;52.352;14.058;2022-10-16T00:04:36;17.10;55.60
326;DHT22;150;52.352;14.058;2022-10-16T00:07:03;17.10;55.30
326;DHT22;150;52.352;14.058;2022-10-16T00:09:30;17.00;55.30
326;DHT22;150;52.352;14.058;2022-10-16T00:11:56;17.00;55.70
326;DHT22;150;52.352;14.058;2022-10-16T00:14:24;17.00;56.50
326;DHT22;150;52.352;14.058;2022-10-16T00:16:51;17.10;55.80
326;DHT22;150;52.352;14.058;2022-10-16T00:19:17;17.10;55.40
326;DHT22;150;52.352;14.058;2022-10-16T00:21:44;17.00;55.70
326;DHT22;150;52.352;14.058;2022-10-16T00:24:11;17.20;55.40
326;DHT22;150;52.352;14.058;2022-10-16T00:26:38;17.10;55.40
326;DHT22;150;52.352;14.058;2022-10-16T00:29:06;17.10;56.10
326;DHT22;150;52.352;14.058;2022-10-16T00:31:34;17.00;55.60
326;DHT22;150;52.352;14.058;2022-10-16T00:34:01;17.00;56.00
326;DHT22;150;52.352;14.058;2022-10-16T00:36:27;17.00;56.40
326;DHT22;150;52.352;14.058;2022-10-16T00:38:56;17.00;56.30
326;DHT22;150;52.352;14.058;2022-10-16T00:41:25;17.00;56.20
326;DHT22;150;52.352;14.058;2022-10-16T00:43:53;16.90;56.30
326;DHT22;150;52.352;14.058;2022-10-16T00:46:22;17.00;56.50
326;DHT22;150;52.352;14.058;2022-10-16T00:48:54;17.10;56.00
326;DHT22;150;52.352;14.058;2022-10-16T00:51:26;17.00;55.70
326;DHT22;150;52.352;14.058;2022-10-16T00:53:55;17.00;56.00
326;DHT22;150;52.352;14.058;2022-10-16T00:56:22;17.00;56.50
326;DHT22;150;52.352;14.058;2022-10-16T00:58:48;17.00;56.30
326;DHT22;150;52.352;14.058;2022-10-16T01:01:15;17.00;56.70
326;DHT22;150;52.352;14.058;2022-10-16T01:03:42;17.00;56.50
326;DHT22;150;52.352;14.058;2022-10-16T01:06:21;17.00;56.10
326;DHT22;150;52.352;14.058;2022-10-16T01:08:57;17.10;56.20
326;DHT22;150;52.352;14.058;2022-10-16T01:11:31;17.20;55.70
326;DHT22;150;52.352;14.058;2022-10-16T01:14:03;17.10;55.80
326;DHT22;150;52.352;14.058;2022-10-16T01:16:35;17.10;55.80
326;DHT22;150;52.352;14.058;2022-10-16T01:19:09;17.20;55.50
326;DHT22;150;52.352;14.058;2022-10-16T01:21:42;17.20;55.60
326;DHT22;150;52.352;14.058;2022-10-16T01:24:15;17.10;55.50
326;DHT22;150;52.352;14.058;2022-10-16T01:27:01;17.10;55.60
326;DHT22;150;52.352;14.058;2022-10-16T01:29:31;17.10;55.80
326;DHT22;150;52.352;14.058;2022-10-16T01:32:10;17.10;55.90
326;DHT22;150;52.352;14.058;2022-10-16T01:34:43;17.10;56.00
326;DHT22;150;52.352;14.058;2022-10-16T01:37:16;17.10;55.90
326;DHT22;150;52.352;14.058;2022-10-16T01:39:46;17.10;56.00
326;DHT22;150;52.352;14.058;2022-10-16T01:42:18;17.20;55.50
326;DHT22;150;52.352;14.058;2022-10-16T01:44:47;17.20;55.40
326;DHT22;150;52.352;14.058;2022-10-16T01:47:15;17.10;55.00
326;DHT22;150;52.352;14.058;2022-10-16T01:49:44;17.20;55.30
326;DHT22;150;52.352;14.058;2022-10-16T01:52:14;17.20;55.10
326;DHT22;150;52.352;14.058;2022-10-16T01:54:45;17.00;55.80
326;DHT22;150;52.352;14.058;2022-10-16T01:57:13;17.10;55.90
326;DHT22;150;52.352;14.058;2022-10-16T01:59:45;17.10;55.80
326;DHT22;150;52.352;14.058;2022-10-16T02:02:13;17.10;56.00
326;DHT22;150;52.352;14.058;2022-10-16T02:04:44;17.10;55.70
326;DHT22;150;52.352;14.058;2022-10-16T02:07:12;17.10;55.70
326;DHT22;150;52.352;14.058;2022-10-16T02:09:39;17.10;56.20
326;DHT22;150;52.352;14.058;2022-10-16T02:12:13;17.10;56.80
326;DHT22;150;52.352;14.058;2022-10-16T02:14:43;17.00;56.30
326;DHT22;150;52.352;14.058;2022-10-16T02:17:11;16.90;56.70
326;DHT22;150;52.352;14.058;2022-10-16T02:19:39;16.90;57.10
326;DHT22;150;52.352;14.058;2022-10-16T02:22:08;16.90;57.30
326;DHT22;150;52.352;14.058;2022-10-16T02:24:39;16.90;57.50
326;DHT22;150;52.352;14.058;2022-10-16T02:27:11;16.90;57.30
326;DHT22;150;52.352;14.058;2022-10-16T02:29:45;17.00;57.00
326;DHT22;150;52.352;14.058;2022-10-16T02:32:19;17.00;56.90
326;DHT22;150;52.352;14.058;2022-10-16T02:34:47;16.90;57.10
326;DHT22;150;52.352;14.058;2022-10-16T02:37:16;16.90;57.30
326;DHT22;150;52.352;14.058;2022-10-16T02:39:44;16.90;57.50
326;DHT22;150;52.352;14.058;2022-10-16T02:42:11;17.00;57.40
326;DHT22;150;52.352;14.058;2022-10-16T02:44:38;17.00;56.80
326;DHT22;150;52.352;14.058;2022-10-16T02:47:06;17.00;56.90
326;DHT22;150;52.352;14.058;2022-10-16T02:49:33;17.00;56.60
326;DHT22;150;52.352;14.058;2022-10-16T02:52:00;17.00;56.70
326;DHT22;150;52.352;14.058;2022-10-16T02:54:26;17.10;56.90
326;DHT22;150;52.352;14.058;2022-10-16T02:56:53;17.10;56.40
326;DHT22;150;52.352;14.058;2022-10-16T02:59:19;17.20;56.20
326;DHT22;150;52.352;14.058;2022-10-16T03:01:46;17.30;55.10
326;DHT22;150;52.352;14.058;2022-10-16T03:04:14;17.30;54.80
326;DHT22;150;52.352;14.058;2022-10-16T03:06:41;17.20;54.80
326;DHT22;150;52.352;14.058;2022-10-16T03:09:07;17.10;55.30
326;DHT22;150;52.352;14.058;2022-10-16T03:11:34;17.20;55.70
326;DHT22;150;52.352;14.058;2022-10-16T03:14:01;17.20;55.30
326;DHT22;150;52.352;14.058;2022-10-16T03:16:28;17.20;55.60
326;DHT22;150;52.352;14.058;2022-10-16T03:18:54;17.10;55.60
326;DHT22;150;52.352;14.058;2022-10-16T03:21:22;17.10;55.60
326;DHT22;150;52.352;14.058;2022-10-16T03:23:49;17.20;55.70
326;DHT22;150;52.352;14.058;2022-10-16T03:26:15;17.20;55.60
326;DHT22;150;52.352;14.058;2022-10-16T03:28:42;17.20;55.30
326;DHT22;150;52.352;14.058;2022-10-16T03:31:09;17.10;55.30
326;DHT22;150;52.352;14.058;2022-10-16T03:33:35;17.10;55.80
326;DHT22;150;52.352;14.058;2022-10-16T03:36:02;17.10;56.60
326;DHT22;150;52.352;14.058;2022-10-16T03:38:30;17.00;55.90
326;DHT22;150;52.352;14.058;2022-10-16T03:40:57;17.10;56.10
326;DHT22;150;52.352;14.058;2022-10-16T03:43:23;17.10;55.80
326;DHT22;150;52.352;14.058;2022-10-16T03:45:50;17.20;55.90
326;DHT22;150;52.352;14.058;2022-10-16T03:48:17;17.10;55.50
326;DHT22;150;52.352;14.058;2022-10-16T03:50:44;17.20;55.90
326;DHT22;150;52.352;14.058;2022-10-16T03:53:11;17.20;55.40
326;DHT22;150;52.352;14.058;2022-10-16T03:55:41;17.10;55.70
326;DHT22;150;52.352;14.058;2022-10-16T03:58:07;17.00;56.00
326;DHT22;150;52.352;14.058;2022-10-16T04:00:34;17.00;56.40
326;DHT22;150;52.352;14.058;2022-10-16T04:03:01;17.00;56.50
326;DHT22;150;52.352;14.058;2022-10-16T04:05:27;16.90;56.70
326;DHT22;150;52.352;14.058;2022-10-16T04:07:54;16.80;56.90
326;DHT22;150;52.352;14.058;2022-10-16T04:10:21;16.90;57.20
326;DHT22;150;52.352;14.058;2022-10-16T04:12:49;16.90;57.80
326;DHT22;150;52.352;14.058;2022-10-16T04:15:16;17.00;57.00
326;DHT22;150;52.352;14.058;2022-10-16T04:17:42;17.00;56.50
326;DHT22;150;52.352;14.058;2022-10-16T04:20:09;16.90;56.50
326;DHT22;150;52.352;14.058;2022-10-16T04:22:36;16.90;56.70
326;DHT22;150;52.352;14.058;2022-10-16T04:25:03;16.90;56.40
326;DHT22;150;52.352;14.058;2022-10-16T04:27:29;16.90;56.20
326;DHT22;150;52.352;14.058;2022-10-16T04:29:58;16.90;56.50
326;DHT22;150;52.352;14.058;2022-10-16T04:32:24;16.90;56.40
326;DHT22;150;52.352;14.058;2022-10-16T04:34:52;17.00;56.40
326;DHT22;150;52.352;14.058;2022-10-16T04:37:18;17.00;55.70
326;DHT22;150;52.352;14.058;2022-10-16T04:39:45;16.80;56.30
326;DHT22;150;52.352;14.058;2022-10-16T04:42:12;16.80;56.60
326;DHT22;150;52.352;14.058;2022-10-16T04:44:38;16.90;56.10
326;DHT22;150;52.352;14.058;2022-10-16T04:47:06;16.90;56.00
326;DHT22;150;52.352;14.058;2022-10-16T04:49:33;16.90;55.80
326;DHT22;150;52.352;14.058;2022-10-16T04:52:00;16.90;55.90
326;DHT22;150;52.352;14.058;2022-10-16T04:54:26;16.70;56.40
326;DHT22;150;52.352;14.058;2022-10-16T04:56:53;16.80;57.20
326;DHT22;150;52.352;14.058;2022-10-16T04:59:21;16.80;56.80
326;DHT22;150;52.352;14.058;2022-10-16T05:01:48;16.90;57.00
326;DHT22;150;52.352;14.058;2022-10-16T05:04:16;17.00;56.30
326;DHT22;150;52.352;14.058;2022-10-16T05:06:43;17.00;55.80
326;DHT22;150;52.352;14.058;2022-10-16T05:09:10;17.10;55.40
326;DHT22;150;52.352;14.058;2022-10-16T05:11:37;17.10;55.20
326;DHT22;150;52.352;14.058;2022-10-16T05:14:03;17.20;54.80
326;DHT22;150;52.352;14.058;2022-10-16T05:16:30;17.20;54.80
326;DHT22;150;52.352;14.058;2022-10-16T05:18:57;17.30;54.40
326;DHT22;150;52.352;14.058;2022-10-16T05:21:25;17.30;54.20
326;DHT22;150;52.352;14.058;2022-10-16T05:23:53;17.30;54.30
326;DHT22;150;52.352;14.058;2022-10-16T05:26:20;17.20;55.20
326;DHT22;150;52.352;14.058;2022-10-16T05:28:47;17.20;54.60
326;DHT22;150;52.352;14.058;2022-10-16T05:31:14;17.30;54.40
326;DHT22;150;52.352;14.058;2022-10-16T05:33:40;17.30;54.60
326;DHT22;150;52.352;14.058;2022-10-16T05:36:08;17.20;54.60
326;DHT22;150;52.352;14.058;2022-10-16T05:38:37;17.20;54.60
326;DHT22;150;52.352;14.058;2022-10-16T05:41:04;17.30;54.60
326;DHT22;150;52.352;14.058;2022-10-16T05:43:31;17.20;54.50
326;DHT22;150;52.352;14.058;2022-10-16T05:46:00;17.30;54.90
326;DHT22;150;52.352;14.058;2022-10-16T05:48:27;17.40;54.30
326;DHT22;150;52.352;14.058;2022-10-16T05:50:58;17.30;54.20
326;DHT22;150;52.352;14.058;2022-10-16T05:53:26;17.30;54.60
326;DHT22;150;52.352;14.058;2022-10-16T05:55:54;17.40;54.70
326;DHT22;150;52.352;14.058;2022-10-16T05:58:21;17.30;54.60
326;DHT22;150;52.352;14.058;2022-10-16T06:00:53;17.30;55.30
326;DHT22;150;52.352;14.058;2022-10-16T06:03:20;17.20;55.10
326;DHT22;150;52.352;14.058;2022-10-16T06:05:47;17.30;55.50
326;DHT22;150;52.352;14.058;2022-10-16T06:08:13;17.30;55.40
326;DHT22;150;52.352;14.058;2022-10-16T06:10:40;17.30;55.40
326;DHT22;150;52.352;14.058;2022-10-16T06:13:08;17.30;55.50
326;DHT22;150;52.352;14.058;2022-10-16T06:15:34;17.30;55.40
326;DHT22;150;52.352;14.058;2022-10-16T06:18:01;17.20;55.60
326;DHT22;150;52.352;14.058;2022-10-16T06:20:28;17.30;56.00
326;DHT22;150;52.352;14.058;2022-10-16T06:22:54;17.40;55.30
326;DHT22;150;52.352;14.058;2022-10-16T06:25:21;17.30;54.90
326;DHT22;150;52.352;14.058;2022-10-16T06:27:47;17.40;54.90
326;DHT22;150;52.352;14.058;2022-10-16T06:30:15;17.40;55.20
326;DHT22;150;52.352;14.058;2022-10-16T06:32:42;17.40;55.50
326;DHT22;150;52.352;14.058;2022-10-16T06:35:09;17.50;54.80
326;DHT22;150;52.352;14.058;2022-10-16T06:37:35;17.60;55.00
326;DHT22;150;52.352;14.058;2022-10-16T06:40:02;17.50;54.50
326;DHT22;150;52.352;14.058;2022-10-16T06:42:30;17.60;54.70
326;DHT22;150;52.352;14.058;2022-10-16T06:44:56;17.60;54.30
326;DHT22;150;52.352;14.058;2022-10-16T06:47:24;17.80;54.60
326;DHT22;150;52.352;14.058;2022-10-16T06:49:51;17.90;53.90
326;DHT22;150;52.352;14.058;2022-10-16T06:52:18;18.00;53.60
326;DHT22;150;52.352;14.058;2022-10-16T06:54:44;18.00;52.80
326;DHT22;150;52.352;14.058;2022-10-16T06:57:11;18.20;52.60
326;DHT22;150;52.352;14.058;2022-10-16T06:59:37;18.30;52.60
326;DHT22;150;52.352;14.058;2022-10-16T07:02:04;18.50;51.30
326;DHT22;150;52.352;14.058;2022-10-16T07:04:33;18.60;50.70
326;DHT22;150;52.352;14.058;2022-10-16T07:07:01;18.60;50.30
326;DHT22;150;52.352;14.058;2022-10-16T07:09:28;18.60;49.40
326;DHT22;150;52.352;14.058;2022-10-16T07:11:55;18.60;49.40
326;DHT22;150;52.352;14.058;2022-10-16T07:14:21;18.70;49.40
326;DHT22;150;52.352;14.058;2022-10-16T07:16:48;18.50;49.30
326;DHT22;150;52.352;14.058;2022-10-16T07:19:15;18.50;49.80
326;DHT22;150;52.352;14.058;2022-10-16T07:21:44;18.50;50.00
326;DHT22;150;52.352;14.058;2022-10-16T07:24:12;18.30;50.40
326;DHT22;150;52.352;14.058;2022-10-16T07:26:40;18.20;50.40
326;DHT22;150;52.352;14.058;2022-10-16T07:29:12;18.20;50.30
326;DHT22;150;52.352;14.058;2022-10-16T07:31:39;18.20;51.00
326;DHT22;150;52.352;14.058;2022-10-16T07:34:06;18.30;51.00
326;DHT22;150;52.352;14.058;2022-10-16T07:36:32;18.40;50.50
326;DHT22;150;52.352;14.058;2022-10-16T07:39:01;18.40;50.80
326;DHT22;150;52.352;14.058;2022-10-16T07:41:27;18.50;50.60
326;DHT22;150;52.352;14.058;2022-10-16T07:43:55;18.50;50.60
326;DHT22;150;52.352;14.058;2022-10-16T07:46:25;18.60;50.60
326;DHT22;150;52.352;14.058;2022-10-16T07:48:52;18.70;49.80
326;DHT22;150;52.352;14.058;2022-10-16T07:51:47;18.80;49.90
326;DHT22;150;52.352;14.058;2022-10-16T07:54:27;19.00;50.00
326;DHT22;150;52.352;14.058;2022-10-16T07:57:50;19.00;48.80
326;DHT22;150;52.352;14.058;2022-10-16T08:04:28;19.10;49.60
326;DHT22;150;52.352;14.058;2022-10-16T08:07:28;19.20;50.00
326;DHT22;150;52.352;14.058;2022-10-16T08:10:16;19.20;49.50
326;DHT22;150;52.352;14.058;2022-10-16T08:12:43;19.30;48.90
326;DHT22;150;52.352;14.058;2022-10-16T08:15:10;19.30;49.10
326;DHT22;150;52.352;14.058;2022-10-16T08:17:37;19.30;49.10
326;DHT22;150;52.352;14.058;2022-10-16T08:20:04;19.50;48.50
326;DHT22;150;52.352;14.058;2022-10-16T08:22:31;19.40;48.10
326;DHT22;150;52.352;14.058;2022-10-16T08:24:58;19.40;47.90
326;DHT22;150;52.352;14.058;2022-10-16T08:27:31;19.40;48.20
326;DHT22;150;52.352;14.058;2022-10-16T08:29:57;19.30;48.30
326;DHT22;150;52.352;14.058;2022-10-16T08:32:24;19.30;48.00
326;DHT22;150;52.352;14.058;2022-10-16T08:34:50;19.30;47.90
326;DHT22;150;52.352;14.058;2022-10-16T08:37:17;19.20;48.00
326;DHT22;150;52.352;14.058;2022-10-16T08:39:44;19.20;48.60
326;DHT22;150;52.352;14.058;2022-10-16T08:42:23;19.20;48.50
326;DHT22;150;52.352;14.058;2022-10-16T08:45:09;19.20;48.60
326;DHT22;150;52.352;14.058;2022-10-16T08:47:47;19.20;48.10
326;DHT22;150;52.352;14.058;2022-10-16T08:50:22;19.30;48.20
326;DHT22;150;52.352;14.058;2022-10-16T08:52:51;19.20;48.00
326;DHT22;150;52.352;14.058;2022-10-16T08:55:33;19.30;47.40
326;DHT22;150;52.352;14.058;2022-10-16T08:58:01;19.10;48.00
326;DHT22;150;52.352;14.058;2022-10-16T09:00:30;19.20;48.20
326;DHT22;150;52.352;14.058;2022-10-16T09:03:05;19.20;48.50
326;DHT22;150;52.352;14.058;2022-10-16T09:05:52;19.20;48.60
326;DHT22;150;52.352;14.058;2022-10-16T09:08:27;19.20;48.10
326;DHT22;150;52.352;14.058;2022-10-16T09:10:58;19.20;48.00
326;DHT22;150;52.352;14.058;2022-10-16T09:13:29;19.30;48.30
326;DHT22;150;52.352;14.058;2022-10-16T09:16:10;19.40;47.30
326;DHT22;150;52.352;14.058;2022-10-16T09:18:45;19.40;47.30
326;DHT22;150;52.352;14.058;2022-10-16T09:21:16;19.60;46.90
326;DHT22;150;52.352;14.058;2022-10-16T09:23:45;19.60;46.70
326;DHT22;150;52.352;14.058;2022-10-16T09:26:13;19.60;46.30
326;DHT22;150;52.352;14.058;2022-10-16T09:28:41;19.50;46.50
326;DHT22;150;52.352;14.058;2022-10-16T09:31:15;19.50;46.60
326;DHT22;150;52.352;14.058;2022-10-16T09:33:43;19.40;47.00
326;DHT22;150;52.352;14.058;2022-10-16T09:36:12;19.30;47.00
326;DHT22;150;52.352;14.058;2022-10-16T09:38:39;19.30;47.30
326;DHT22;150;52.352;14.058;2022-10-16T09:41:14;19.30;47.30
326;DHT22;150;52.352;14.058;2022-10-16T09:43:47;19.30;47.50
326;DHT22;150;52.352;14.058;2022-10-16T09:46:25;19.30;48.00
326;DHT22;150;52.352;14.058;2022-10-16T09:48:55;19.60;47.30
326;DHT22;150;52.352;14.058;2022-10-16T09:51:24;19.70;46.80
326;DHT22;150;52.352;14.058;2022-10-16T09:53:56;19.90;45.80
326;DHT22;150;52.352;14.058;2022-10-16T09:56:24;19.80;45.00
326;DHT22;150;52.352;14.058;2022-10-16T09:58:51;19.80;44.70
326;DHT22;150;52.352;14.058;2022-10-16T10:01:19;20.00;44.80
326;DHT22;150;52.352;14.058;2022-10-16T10:03:47;20.10;44.40
326;DHT22;150;52.352;14.058;2022-10-16T10:06:22;20.10;44.60
326;DHT22;150;52.352;14.058;2022-10-16T10:08:58;20.30;44.40
326;DHT22;150;52.352;14.058;2022-10-16T10:11:43;20.20;43.30
326;DHT22;150;52.352;14.058;2022-10-16T10:14:20;20.10;43.20
326;DHT22;150;52.352;14.058;2022-10-16T10:16:48;20.10;43.00
326;DHT22;150;52.352;14.058;2022-10-16T10:19:17;20.10;42.50
326;DHT22;150;52.352;14.058;2022-10-16T10:21:45;20.00;42.50
326;DHT22;150;52.352;14.058;2022-10-16T10:24:13;20.00;42.70
326;DHT22;150;52.352;14.058;2022-10-16T10:26:47;19.90;43.10
326;DHT22;150;52.352;14.058;2022-10-16T10:29:20;20.00;42.70
326;DHT22;150;52.352;14.058;2022-10-16T10:31:56;20.10;42.50
326;DHT22;150;52.352;14.058;2022-10-16T10:34:45;20.00;41.50
326;DHT22;150;52.352;14.058;2022-10-16T10:37:28;20.10;42.40
326;DHT22;150;52.352;14.058;2022-10-16T10:40:07;20.20;42.30
326;DHT22;150;52.352;14.058;2022-10-16T10:42:43;20.30;41.60
326;DHT22;150;52.352;14.058;2022-10-16T10:45:17;20.30;41.60
326;DHT22;150;52.352;14.058;2022-10-16T10:47:52;20.40;40.80
326;DHT22;150;52.352;14.058;2022-10-16T10:50:25;20.50;41.40
326;DHT22;150;52.352;14.058;2022-10-16T10:52:58;20.50;40.20
326;DHT22;150;52.352;14.058;2022-10-16T10:55:33;20.70;40.20
326;DHT22;150;52.352;14.058;2022-10-16T10:58:37;20.60;38.80
326;DHT22;150;52.352;14.058;2022-10-16T11:01:09;20.70;39.30
326;DHT22;150;52.352;14.058;2022-10-16T11:03:53;20.90;37.90
326;DHT22;150;52.352;14.058;2022-10-16T11:06:29;20.80;38.40
326;DHT22;150;52.352;14.058;2022-10-16T11:09:00;20.80;37.80
326;DHT22;150;52.352;14.058;2022-10-16T11:11:33;20.80;37.50
326;DHT22;150;52.352;14.058;2022-10-16T11:14:04;21.00;37.50
326;DHT22;150;52.352;14.058;2022-10-16T11:16:35;21.00;36.90
326;DHT22;150;52.352;14.058;2022-10-16T11:19:09;21.20;36.90
326;DHT22;150;52.352;14.058;2022-10-16T11:21:43;21.10;35.60
326;DHT22;150;52.352;14.058;2022-10-16T11:24:20;21.20;35.60
326;DHT22;150;52.352;14.058;2022-10-16T11:26:49;21.30;35.80
326;DHT22;150;52.352;14.058;2022-10-16T11:29:22;21.40;34.50
326;DHT22;150;52.352;14.058;2022-10-16T11:31:52;21.50;33.60
326;DHT22;150;52.352;14.058;2022-10-16T11:34:25;21.80;33.20
326;DHT22;150;52.352;14.058;2022-10-16T11:36:58;21.80;31.90
326;DHT22;150;52.352;14.058;2022-10-16T11:39:29;21.80;31.40
326;DHT22;150;52.352;14.058;2022-10-16T11:42:01;21.90;32.00
326;DHT22;150;52.352;14.058;2022-10-16T11:44:40;22.10;31.70
326;DHT22;150;52.352;14.058;2022-10-16T11:47:16;22.10;30.90
326;DHT22;150;52.352;14.058;2022-10-16T11:49:47;21.90;30.80
326;DHT22;150;52.352;14.058;2022-10-16T11:52:22;21.90;30.60
326;DHT22;150;52.352;14.058;2022-10-16T11:54:55;22.00;31.30
326;DHT22;150;52.352;14.058;2022-10-16T11:57:24;22.00;30.00
326;DHT22;150;52.352;14.058;2022-10-16T11:59:55;21.90;30.50
326;DHT22;150;52.352;14.058;2022-10-16T12:02:31;21.90;30.20
326;DHT22;150;52.352;14.058;2022-10-16T12:05:07;22.00;30.50
326;DHT22;150;52.352;14.058;2022-10-16T12:07:44;21.90;30.00
326;DHT22;150;52.352;14.058;2022-10-16T12:10:20;21.80;30.00
326;DHT22;150;52.352;14.058;2022-10-16T12:12:47;21.50;30.00
326;DHT22;150;52.352;14.058;2022-10-16T12:15:20;21.60;31.10
326;DHT22;150;52.352;14.058;2022-10-16T12:17:48;21.60;30.80
326;DHT22;150;52.352;14.058;2022-10-16T12:20:26;21.40;30.70
326;DHT22;150;52.352;14.058;2022-10-16T12:22:59;21.40;30.40
326;DHT22;150;52.352;14.058;2022-10-16T12:25:28;21.50;30.70
326;DHT22;150;52.352;14.058;2022-10-16T12:27:57;21.60;30.60
326;DHT22;150;52.352;14.058;2022-10-16T12:30:25;21.50;30.30
326;DHT22;150;52.352;14.058;2022-10-16T12:32:53;21.60;30.80
326;DHT22;150;52.352;14.058;2022-10-16T12:35:24;21.60;30.70
326;DHT22;150;52.352;14.058;2022-10-16T12:37:52;21.70;31.40
326;DHT22;150;52.352;14.058;2022-10-16T12:40:29;21.80;30.30
326;DHT22;150;52.352;14.058;2022-10-16T12:42:57;21.80;30.20
326;DHT22;150;52.352;14.058;2022-10-16T12:45:29;21.90;30.00
326;DHT22;150;52.352;14.058;2022-10-16T12:47:59;22.00;30.20
326;DHT22;150;52.352;14.058;2022-10-16T12:50:29;22.00;29.50
326;DHT22;150;52.352;14.058;2022-10-16T12:52:57;22.10;30.00
326;DHT22;150;52.352;14.058;2022-10-16T12:55:26;22.30;29.70
326;DHT22;150;52.352;14.058;2022-10-16T12:58:09;22.20;28.90
326;DHT22;150;52.352;14.058;2022-10-16T13:00:44;22.40;28.90
326;DHT22;150;52.352;14.058;2022-10-16T13:06:30;22.90;28.60
326;DHT22;150;52.352;14.058;2022-10-16T13:09:19;23.00;27.30
326;DHT22;150;52.352;14.058;2022-10-16T13:12:12;23.20;26.70
326;DHT22;150;52.352;14.058;2022-10-16T13:15:06;23.00;26.20
326;DHT22;150;52.352;14.058;2022-10-16T13:17:42;23.00;26.30
326;DHT22;150;52.352;14.058;2022-10-16T13:20:18;22.90;25.70
326;DHT22;150;52.352;14.058;2022-10-16T13:22:51;22.80;26.40
326;DHT22;150;52.352;14.058;2022-10-16T13:25:32;22.80;27.10
326;DHT22;150;52.352;14.058;2022-10-16T13:28:07;22.70;27.10
326;DHT22;150;52.352;14.058;2022-10-16T13:30:38;22.80;26.90
326;DHT22;150;52.352;14.058;2022-10-16T13:33:13;22.90;26.80
326;DHT22;150;52.352;14.058;2022-10-16T13:35:48;23.00;26.80
326;DHT22;150;52.352;14.058;2022-10-16T13:38:16;22.70;26.70
326;DHT22;150;52.352;14.058;2022-10-16T13:40:52;22.80;26.50
326;DHT22;150;52.352;14.058;2022-10-16T13:43:22;22.80;27.10
326;DHT22;150;52.352;14.058;2022-10-16T13:45:54;22.80;27.50
326;DHT22;150;52.352;14.058;2022-10-16T13:48:21;22.80;27.50
326;DHT22;150;52.352;14.058;2022-10-16T13:51:02;22.70;27.50
326;DHT22;150;52.352;14.058;2022-10-16T13:53:31;22.60;27.50
326;DHT22;150;52.352;14.058;2022-10-16T13:55:58;22.60;27.70
326;DHT22;150;52.352;14.058;2022-10-16T13:58:27;22.70;27.80
326;DHT22;150;52.352;14.058;2022-10-16T14:00:55;22.60;27.70
326;DHT22;150;52.352;14.058;2022-10-16T14:03:23;22.50;27.00
326;DHT22;150;52.352;14.058;2022-10-16T14:05:52;22.40;27.60
326;DHT22;150;52.352;14.058;2022-10-16T14:08:19;22.20;28.10
326;DHT22;150;52.352;14.058;2022-10-16T14:10:49;22.20;28.30
326;DHT22;150;52.352;14.058;2022-10-16T14:13:19;22.20;28.40
326;DHT22;150;52.352;14.058;2022-10-16T14:15:49;22.00;28.10
326;DHT22;150;52.352;14.058;2022-10-16T14:18:20;21.90;28.00
326;DHT22;150;52.352;14.058;2022-10-16T14:20:49;21.90;27.70
326;DHT22;150;52.352;14.058;2022-10-16T14:23:23;21.90;27.80
326;DHT22;150;52.352;14.058;2022-10-16T14:26:06;21.80;27.60
326;DHT22;150;52.352;14.058;2022-10-16T14:28:33;21.80;27.90
326;DHT22;150;52.352;14.058;2022-10-16T14:31:31;22.00;27.70
326;DHT22;150;52.352;14.058;2022-10-16T14:34:40;22.10;27.80
326;DHT22;150;52.352;14.058;2022-10-16T14:37:13;22.20;27.60
326;DHT22;150;52.352;14.058;2022-10-16T14:40:04;22.50;27.80
326;DHT22;150;52.352;14.058;2022-10-16T14:42:43;22.70;26.70
326;DHT22;150;52.352;14.058;2022-10-16T14:45:26;22.70;26.50
326;DHT22;150;52.352;14.058;2022-10-16T14:48:19;22.80;26.30
326;DHT22;150;52.352;14.058;2022-10-16T14:51:00;22.90;26.50
326;DHT22;150;52.352;14.058;2022-10-16T14:53:36;22.90;25.60
326;DHT22;150;52.352;14.058;2022-10-16T14:56:22;22.80;25.60
326;DHT22;150;52.352;14.058;2022-10-16T14:59:16;22.70;25.80
326;DHT22;150;52.352;14.058;2022-10-16T15:02:15;22.60;26.00
326;DHT22;150;52.352;14.058;2022-10-16T15:05:13;22.40;26.40
326;DHT22;150;52.352;14.058;2022-10-16T15:08:24;22.20;26.90
326;DHT22;150;52.352;14.058;2022-10-16T15:11:04;22.20;26.90
326;DHT22;150;52.352;14.058;2022-10-16T15:13:42;22.20;27.20
326;DHT22;150;52.352;14.058;2022-10-16T15:16:21;22.30;27.20
326;DHT22;150;52.352;14.058;2022-10-16T15:18:48;22.40;27.10
326;DHT22;150;52.352;14.058;2022-10-16T15:24:22;22.20;27.90
326;DHT22;150;52.352;14.058;2022-10-16T15:26:59;22.20;27.50
326;DHT22;150;52.352;14.058;2022-10-16T15:29:26;22.10;27.80
326;DHT22;150;52.352;14.058;2022-10-16T15:32:23;22.00;27.90
326;DHT22;150;52.352;14.058;2022-10-16T15:35:00;21.90;28.40
326;DHT22;150;52.352;14.058;2022-10-16T15:37:39;21.70;28.60
326;DHT22;150;52.352;14.058;2022-10-16T15:40:22;21.70;28.90
326;DHT22;150;52.352;14.058;2022-10-16T15:43:17;21.70;29.00
326;DHT22;150;52.352;14.058;2022-10-16T15:46:12;21.60;29.10
326;DHT22;150;52.352;14.058;2022-10-16T15:48:52;21.60;29.20
326;DHT22;150;52.352;14.058;2022-10-16T15:51:48;21.60;29.40
326;DHT22;150;52.352;14.058;2022-10-16T15:54:15;21.50;29.50
326;DHT22;150;52.352;14.058;2022-10-16T15:56:52;21.50;29.70
326;DHT22;150;52.352;14.058;2022-10-16T15:59:47;21.40;29.80
326;DHT22;150;52.352;14.058;2022-10-16T16:05:08;21.30;30.10
326;DHT22;150;52.352;14.058;2022-10-16T16:07:45;21.20;30.30
326;DHT22;150;52.352;14.058;2022-10-16T16:10:27;21.10;30.60
326;DHT22;150;52.352;14.058;2022-10-16T16:13:08;21.00;31.10
326;DHT22;150;52.352;14.058;2022-10-16T16:16:04;20.90;31.10
326;DHT22;150;52.352;14.058;2022-10-16T16:18:41;20.70;31.00
326;DHT22;150;52.352;14.058;2022-10-16T16:21:26;20.60;31.50
326;DHT22;150;52.352;14.058;2022-10-16T16:24:18;20.50;32.70
326;DHT22;150;52.352;14.058;2022-10-16T16:26:46;20.30;32.30
326;DHT22;150;52.352;14.058;2022-10-16T16:29:23;20.10;32.90
326;DHT22;150;52.352;14.058;2022-10-16T16:32:00;20.00;33.80
326;DHT22;150;52.352;14.058;2022-10-16T16:34:57;19.90;34.60
326;DHT22;150;52.352;14.058;2022-10-16T16:37:24;19.80;35.10
326;DHT22;150;52.352;14.058;2022-10-16T16:40:02;19.60;35.20
326;DHT22;150;52.352;14.058;2022-10-16T16:42:39;19.60;35.60
326;DHT22;150;52.352;14.058;2022-10-16T16:45:23;19.50;36.10
326;DHT22;150;52.352;14.058;2022-10-16T16:47:57;19.30;36.30
326;DHT22;150;52.352;14.058;2022-10-16T16:50:34;19.30;36.80
326;DHT22;150;52.352;14.058;2022-10-16T16:53:01;19.20;38.30
326;DHT22;150;52.352;14.058;2022-10-16T16:55:37;19.10;37.80
326;DHT22;150;52.352;14.058;2022-10-16T16:58:13;19.10;38.10
326;DHT22;150;52.352;14.058;2022-10-16T17:00:56;19.00;38.10
326;DHT22;150;52.352;14.058;2022-10-16T17:03:37;19.00;38.50